createdAt,value
2022-10-13T00:00:06.925Z,14.03
2022-10-13T00:01:07.251Z,13.97
2022-10-13T00:02:06.962Z,14.04
2022-10-13T00:03:06.984Z,14.03
2022-10-13T00:04:06.998Z,13.95
2022-10-13T00:05:06.502Z,13.99
2022-10-13T00:06:07.042Z,13.97
2022-10-13T00:07:07.056Z,13.93
2022-10-13T00:08:07.081Z,14.05
2022-10-13T00:09:06.836Z,13.99
2022-10-13T00:10:06.857Z,13.93
2022-10-13T00:11:06.874Z,14
2022-10-13T00:12:06.886Z,13.97
2022-10-13T00:13:07.155Z,13.85
2022-10-13T00:14:06.913Z,13.89
2022-10-13T00:15:07.258Z,13.99
2022-10-13T00:16:06.960Z,13.86
2022-10-13T00:17:07.267Z,13.83
2022-10-13T00:18:06.998Z,13.86
2022-10-13T00:19:09.749Z,13.89
2022-10-13T00:20:07.029Z,13.74
2022-10-13T00:21:07.700Z,13.79
2022-10-13T00:22:07.073Z,13.79
2022-10-13T00:23:06.824Z,13.86
2022-10-13T00:24:07.358Z,13.85
2022-10-13T00:25:07.387Z,13.87
2022-10-13T00:26:07.137Z,13.72
2022-10-13T00:27:07.150Z,13.74
2022-10-13T00:28:07.439Z,13.72
2022-10-13T00:29:07.356Z,13.72
2022-10-13T00:30:06.957Z,13.74
2022-10-13T00:31:07.285Z,13.77
2022-10-13T00:32:07.243Z,13.77
2022-10-13T00:33:07.691Z,13.68
2022-10-13T00:34:07.305Z,13.72
2022-10-13T00:35:07.509Z,13.78
2022-10-13T00:36:07.537Z,13.74
2022-10-13T00:37:07.692Z,13.68
2022-10-13T00:38:07.717Z,13.72
2022-10-13T00:39:07.222Z,13.71
2022-10-13T00:40:07.741Z,13.78
2022-10-13T00:41:07.257Z,13.79
2022-10-13T00:42:07.422Z,13.77
2022-10-13T00:43:07.492Z,13.71
2022-10-13T00:44:07.473Z,13.71
2022-10-13T00:45:07.228Z,13.72
2022-10-13T00:46:07.497Z,13.74
2022-10-13T00:47:07.821Z,13.67
2022-10-13T00:48:07.789Z,13.63
2022-10-13T00:49:07.590Z,13.6
2022-10-13T00:50:07.578Z,13.7
2022-10-13T00:51:07.850Z,13.68
2022-10-13T00:52:07.873Z,13.72
2022-10-13T00:53:07.627Z,13.65
2022-10-13T00:54:07.891Z,13.71
2022-10-13T00:55:07.661Z,13.65
2022-10-13T00:56:07.928Z,13.71
2022-10-13T00:57:07.955Z,13.68
2022-10-13T00:58:10.361Z,13.68
2022-10-13T00:59:07.726Z,13.67
2022-10-13T01:00:07.761Z,13.67
2022-10-13T01:01:08.139Z,13.65
2022-10-13T01:02:07.792Z,13.6
2022-10-13T01:03:07.843Z,13.57
2022-10-13T01:04:07.566Z,13.62
2022-10-13T01:05:08.103Z,13.59
2022-10-13T01:06:08.106Z,13.59
2022-10-13T01:07:08.133Z,13.67
2022-10-13T01:08:07.626Z,13.6
2022-10-13T01:09:07.908Z,13.59
2022-10-13T01:10:07.660Z,13.62
2022-10-13T01:11:07.678Z,13.6
2022-10-13T01:12:07.965Z,13.67
2022-10-13T01:13:07.725Z,13.59
2022-10-13T01:14:07.990Z,13.59
2022-10-13T01:15:08.274Z,13.6
2022-10-13T01:16:07.771Z,13.6
2022-10-13T01:17:08.041Z,13.63
2022-10-13T01:18:08.330Z,13.67
2022-10-13T01:19:08.390Z,13.56
2022-10-13T01:20:08.094Z,13.62
2022-10-13T01:21:08.596Z,13.6
2022-10-13T01:22:08.127Z,13.54
2022-10-13T01:23:08.151Z,13.57
2022-10-13T01:24:08.429Z,13.53
2022-10-13T01:25:08.186Z,13.53
2022-10-13T01:26:08.454Z,13.5
2022-10-13T01:27:08.233Z,13.54
2022-10-13T01:28:08.245Z,13.6
2022-10-13T01:29:08.259Z,13.62
2022-10-13T01:30:08.285Z,13.53
2022-10-13T01:31:08.310Z,13.52
2022-10-13T01:32:08.571Z,13.53
2022-10-13T01:33:08.319Z,13.63
2022-10-13T01:34:08.609Z,13.59
2022-10-13T01:35:08.415Z,13.53
2022-10-13T01:36:08.640Z,13.57
2022-10-13T01:37:08.424Z,13.63
2022-10-13T01:38:08.419Z,13.56
2022-10-13T01:39:08.695Z,13.56
2022-10-13T01:40:08.711Z,13.44
2022-10-13T01:41:10.668Z,13.54
2022-10-13T01:42:11.075Z,13.53
2022-10-13T01:43:08.756Z,13.49
2022-10-13T01:44:08.274Z,13.56
2022-10-13T01:45:08.806Z,13.56
2022-10-13T01:46:08.554Z,13.52
2022-10-13T01:47:08.583Z,13.44
2022-10-13T01:48:08.853Z,13.52
2022-10-13T01:49:08.874Z,13.6
2022-10-13T01:50:08.633Z,13.5
2022-10-13T01:51:08.967Z,13.56
2022-10-13T01:52:08.414Z,13.57
2022-10-13T01:53:08.972Z,13.57
2022-10-13T01:54:08.968Z,13.56
2022-10-13T01:55:08.461Z,13.56
2022-10-13T01:56:08.746Z,13.42
2022-10-13T01:57:08.758Z,13.5
2022-10-13T01:58:09.041Z,13.52
2022-10-13T01:59:08.547Z,13.46
2022-10-13T02:00:09.075Z,13.54
2022-10-13T02:01:09.138Z,13.5
2022-10-13T02:02:09.112Z,13.52
2022-10-13T02:03:08.858Z,13.54
2022-10-13T02:04:08.889Z,13.53
2022-10-13T02:05:08.907Z,13.56
2022-10-13T02:06:09.179Z,13.53
2022-10-13T02:07:08.986Z,13.49
2022-10-13T02:08:09.218Z,13.67
2022-10-13T02:09:09.365Z,13.6
2022-10-13T02:10:08.992Z,13.54
2022-10-13T02:11:09.016Z,13.6
2022-10-13T02:12:09.281Z,13.49
2022-10-13T02:13:09.048Z,13.57
2022-10-13T02:14:09.306Z,13.53
2022-10-13T02:15:09.349Z,13.68
2022-10-13T02:16:09.105Z,13.49
2022-10-13T02:17:09.370Z,13.57
2022-10-13T02:18:09.133Z,13.68
2022-10-13T02:19:09.152Z,13.46
2022-10-13T02:20:09.171Z,13.57
2022-10-13T02:21:09.232Z,13.53
2022-10-13T02:22:09.465Z,13.53
2022-10-13T02:23:09.520Z,13.65
2022-10-13T02:24:08.975Z,13.56
2022-10-13T02:25:09.566Z,13.57
2022-10-13T02:26:09.282Z,13.5
2022-10-13T02:27:09.040Z,13.47
2022-10-13T02:28:09.302Z,13.52
2022-10-13T02:29:09.587Z,13.47
2022-10-13T02:30:09.606Z,13.7
2022-10-13T02:31:09.615Z,13.5
2022-10-13T02:32:09.121Z,13.7
2022-10-13T02:33:09.403Z,13.54
2022-10-13T02:34:09.679Z,13.54
2022-10-13T02:35:09.691Z,13.49
2022-10-13T02:36:09.710Z,13.49
2022-10-13T02:37:09.729Z,13.52
2022-10-13T02:38:09.738Z,13.53
2022-10-13T02:39:09.555Z,13.59
2022-10-13T02:40:09.264Z,13.56
2022-10-13T02:41:09.823Z,13.52
2022-10-13T02:42:09.815Z,13.56
2022-10-13T02:43:09.852Z,13.56
2022-10-13T02:44:09.598Z,13.6
2022-10-13T02:45:09.876Z,13.57
2022-10-13T02:46:09.650Z,13.5
2022-10-13T02:47:09.915Z,13.56
2022-10-13T02:48:09.927Z,13.5
2022-10-13T02:49:09.939Z,13.56
2022-10-13T02:50:09.691Z,13.46
2022-10-13T02:51:09.976Z,13.54
2022-10-13T02:52:10.032Z,13.56
2022-10-13T02:53:10.012Z,13.44
2022-10-13T02:54:09.778Z,13.56
2022-10-13T02:55:10.178Z,13.56
2022-10-13T02:56:10.062Z,13.56
2022-10-13T02:57:09.853Z,13.52
2022-10-13T02:58:10.099Z,13.62
2022-10-13T02:59:09.862Z,13.52
2022-10-13T03:00:09.618Z,13.53
2022-10-13T03:01:10.104Z,13.56
2022-10-13T03:02:10.174Z,13.52
2022-10-13T03:03:09.931Z,13.59
2022-10-13T03:04:09.954Z,13.6
2022-10-13T03:05:10.221Z,13.5
2022-10-13T03:06:10.246Z,13.53
2022-10-13T03:07:10.268Z,13.44
2022-10-13T03:08:10.022Z,13.57
2022-10-13T03:09:10.037Z,13.47
2022-10-13T03:10:10.323Z,13.46
2022-10-13T03:11:10.116Z,13.54
2022-10-13T03:12:09.830Z,13.53
2022-10-13T03:13:10.381Z,13.46
2022-10-13T03:14:10.381Z,13.38
2022-10-13T03:15:10.418Z,13.46
2022-10-13T03:16:09.906Z,13.57
2022-10-13T03:17:15.936Z,13.47
2022-10-13T03:18:10.195Z,13.59
2022-10-13T03:19:10.467Z,13.59
2022-10-13T03:20:10.239Z,13.49
2022-10-13T03:21:10.612Z,13.54
2022-10-13T03:22:10.528Z,13.56
2022-10-13T03:23:10.282Z,13.44
2022-10-13T03:24:10.565Z,13.54
2022-10-13T03:25:10.315Z,13.46
2022-10-13T03:26:10.350Z,13.6
2022-10-13T03:27:10.408Z,13.57
2022-10-13T03:28:10.380Z,13.57
2022-10-13T03:29:10.667Z,13.54
2022-10-13T03:30:10.421Z,13.6
2022-10-13T03:31:10.180Z,13.47
2022-10-13T03:32:10.453Z,13.59
2022-10-13T03:33:10.467Z,13.5
2022-10-13T03:34:10.745Z,13.57
2022-10-13T03:35:10.500Z,13.59
2022-10-13T03:36:10.519Z,13.59
2022-10-13T03:37:10.789Z,13.47
2022-10-13T03:38:10.805Z,13.47
2022-10-13T03:39:10.820Z,13.46
2022-10-13T03:40:10.596Z,13.59
2022-10-13T03:41:10.346Z,13.53
2022-10-13T03:42:10.618Z,13.47
2022-10-13T03:43:11.010Z,13.56
2022-10-13T03:44:10.657Z,13.47
2022-10-13T03:45:10.954Z,13.47
2022-10-13T03:46:10.700Z,13.56
2022-10-13T03:47:10.959Z,13.56
2022-10-13T03:48:10.735Z,13.56
2022-10-13T03:49:10.495Z,13.42
2022-10-13T03:50:11.017Z,13.5
2022-10-13T03:51:10.825Z,13.54
2022-10-13T03:52:11.067Z,13.54
2022-10-13T03:53:11.071Z,13.53
2022-10-13T03:54:10.830Z,13.42
2022-10-13T03:55:10.848Z,13.47
2022-10-13T03:56:10.868Z,13.46
2022-10-13T03:57:10.634Z,13.44
2022-10-13T03:58:10.905Z,13.5
2022-10-13T03:59:11.241Z,13.44
2022-10-13T04:00:10.938Z,13.49
2022-10-13T04:01:11.245Z,13.5
2022-10-13T04:02:11.179Z,13.47
2022-10-13T04:03:10.989Z,13.38
2022-10-13T04:04:11.010Z,13.46
2022-10-13T04:05:11.024Z,13.39
2022-10-13T04:06:11.049Z,13.5
2022-10-13T04:07:11.066Z,13.44
2022-10-13T04:08:11.078Z,13.49
2022-10-13T04:09:11.366Z,13.46
2022-10-13T04:10:15.821Z,13.46
2022-10-13T04:11:11.132Z,13.42
2022-10-13T04:12:11.404Z,13.37
2022-10-13T04:13:11.429Z,13.46
2022-10-13T04:14:11.444Z,13.38
2022-10-13T04:15:11.511Z,13.49
2022-10-13T04:16:11.222Z,13.33
2022-10-13T04:17:11.270Z,13.41
2022-10-13T04:18:11.508Z,13.39
2022-10-13T04:19:11.532Z,13.41
2022-10-13T04:20:11.550Z,13.42
2022-10-13T04:21:11.672Z,13.39
2022-10-13T04:22:11.581Z,13.42
2022-10-13T04:23:11.342Z,13.33
2022-10-13T04:24:11.616Z,13.47
2022-10-13T04:25:11.640Z,13.33
2022-10-13T04:26:11.648Z,13.42
2022-10-13T04:27:11.420Z,13.44
2022-10-13T04:28:11.719Z,13.38
2022-10-13T04:29:11.202Z,13.38
2022-10-13T04:30:15.021Z,13.47
2022-10-13T04:31:11.764Z,13.44
2022-10-13T04:32:11.698Z,13.42
2022-10-13T04:33:11.802Z,13.37
2022-10-13T04:34:11.278Z,13.44
2022-10-13T04:35:11.813Z,13.37
2022-10-13T04:36:11.568Z,13.35
2022-10-13T04:37:11.839Z,13.44
2022-10-13T04:38:11.870Z,13.39
2022-10-13T04:39:11.884Z,13.38
2022-10-13T04:40:11.380Z,13.39
2022-10-13T04:41:11.918Z,13.33
2022-10-13T04:42:11.943Z,13.37
2022-10-13T04:43:11.951Z,13.42
2022-10-13T04:44:11.712Z,13.33
2022-10-13T04:45:11.990Z,13.33
2022-10-13T04:46:11.514Z,13.38
2022-10-13T04:47:12.051Z,13.39
2022-10-13T04:48:12.037Z,13.39
2022-10-13T04:49:12.077Z,13.22
2022-10-13T04:50:12.075Z,13.33
2022-10-13T04:51:11.840Z,13.37
2022-10-13T04:52:11.855Z,13.3
2022-10-13T04:53:15.410Z,13.3
2022-10-13T04:54:12.149Z,13.31
2022-10-13T04:55:12.167Z,13.25
2022-10-13T04:56:11.918Z,13.31
2022-10-13T04:57:12.202Z,13.3
2022-10-13T04:58:12.213Z,13.41
2022-10-13T04:59:12.237Z,13.28
2022-10-13T05:00:12.251Z,13.33
2022-10-13T05:01:12.180Z,13.3
2022-10-13T05:02:12.052Z,13.3
2022-10-13T05:03:12.319Z,13.28
2022-10-13T05:04:12.058Z,13.25
2022-10-13T05:05:12.367Z,13.39
2022-10-13T05:06:12.099Z,13.3
2022-10-13T05:07:27.583Z,13.25
2022-10-13T05:08:12.384Z,13.25
2022-10-13T05:09:12.405Z,13.28
2022-10-13T05:10:12.165Z,13.19
2022-10-13T05:11:11.922Z,13.25
2022-10-13T05:12:12.459Z,13.27
2022-10-13T05:13:12.221Z,13.28
2022-10-13T05:14:12.235Z,13.25
2022-10-13T05:15:12.253Z,13.28
2022-10-13T05:16:12.531Z,13.33
2022-10-13T05:17:12.291Z,13.37
2022-10-13T05:18:12.330Z,13.22
2022-10-13T05:19:12.615Z,13.28
2022-10-13T05:20:12.340Z,13.2
2022-10-13T05:21:12.943Z,13.3
2022-10-13T05:22:12.119Z,13.22
2022-10-13T05:23:12.651Z,13.28
2022-10-13T05:24:12.670Z,13.3
2022-10-13T05:25:12.171Z,13.19
2022-10-13T05:26:12.442Z,13.19
2022-10-13T05:27:12.891Z,13.28
2022-10-13T05:28:12.954Z,13.37
2022-10-13T05:29:12.496Z,13.31
2022-10-13T05:30:12.514Z,13.28
2022-10-13T05:31:12.276Z,13.22
2022-10-13T05:32:12.951Z,13.37
2022-10-13T05:33:12.876Z,13.28
2022-10-13T05:34:12.617Z,13.22
2022-10-13T05:35:12.880Z,13.22
2022-10-13T05:36:12.623Z,13.3
2022-10-13T05:37:12.868Z,13.3
2022-10-13T05:38:12.906Z,13.25
2022-10-13T05:39:12.940Z,13.25
2022-10-13T05:40:12.948Z,13.22
2022-10-13T05:41:12.856Z,13.33
2022-10-13T05:42:12.883Z,13.25
2022-10-13T05:43:12.902Z,13.3
2022-10-13T05:44:12.497Z,13.27
2022-10-13T05:45:13.031Z,13.33
2022-10-13T05:46:13.050Z,13.27
2022-10-13T05:47:13.062Z,13.33
2022-10-13T05:48:12.930Z,13.33
2022-10-13T05:49:13.129Z,13.3
2022-10-13T05:50:12.887Z,13.25
2022-10-13T05:51:13.254Z,13.22
2022-10-13T05:52:13.159Z,13.33
2022-10-13T05:53:13.198Z,13.35
2022-10-13T05:54:13.183Z,13.33
2022-10-13T05:55:13.215Z,13.22
2022-10-13T05:56:12.963Z,13.3
2022-10-13T05:57:12.859Z,13.22
2022-10-13T05:58:12.996Z,13.35
2022-10-13T05:59:13.276Z,13.25
2022-10-13T06:00:12.942Z,13.31
2022-10-13T06:01:13.309Z,13.25
2022-10-13T06:02:13.095Z,13.27
2022-10-13T06:03:13.345Z,13.39
2022-10-13T06:04:13.112Z,13.22
2022-10-13T06:05:13.387Z,13.35
2022-10-13T06:06:13.176Z,13.33
2022-10-13T06:07:13.434Z,13.41
2022-10-13T06:08:13.441Z,13.27
2022-10-13T06:09:13.219Z,13.37
2022-10-13T06:10:13.464Z,13.22
2022-10-13T06:11:13.494Z,13.42
2022-10-13T06:12:13.502Z,13.41
2022-10-13T06:13:13.259Z,13.28
2022-10-13T06:14:13.270Z,13.42
2022-10-13T06:15:13.303Z,13.33
2022-10-13T06:16:13.570Z,13.39
2022-10-13T06:17:13.335Z,13.31
2022-10-13T06:18:13.098Z,13.33
2022-10-13T06:19:13.115Z,13.41
2022-10-13T06:20:13.392Z,13.42
2022-10-13T06:21:13.252Z,13.3
2022-10-13T06:22:13.715Z,13.46
2022-10-13T06:23:13.716Z,13.42
2022-10-13T06:24:13.459Z,13.38
2022-10-13T06:25:13.764Z,13.42
2022-10-13T06:26:13.490Z,13.39
2022-10-13T06:27:13.763Z,13.39
2022-10-13T06:28:13.581Z,13.41
2022-10-13T06:29:13.915Z,13.31
2022-10-13T06:30:13.814Z,13.44
2022-10-13T06:31:13.570Z,13.35
2022-10-13T06:32:13.595Z,13.35
2022-10-13T06:33:13.353Z,13.39
2022-10-13T06:34:13.638Z,13.39
2022-10-13T06:35:13.906Z,13.37
2022-10-13T06:36:13.937Z,13.41
2022-10-13T06:37:13.940Z,13.44
2022-10-13T06:38:13.728Z,13.41
2022-10-13T06:39:13.741Z,13.39
2022-10-13T06:40:13.996Z,13.41
2022-10-13T06:41:14.049Z,13.44
2022-10-13T06:42:13.518Z,13.39
2022-10-13T06:43:13.795Z,13.47
2022-10-13T06:44:13.799Z,13.42
2022-10-13T06:45:13.818Z,13.39
2022-10-13T06:46:14.102Z,13.46
2022-10-13T06:47:13.858Z,13.41
2022-10-13T06:48:13.879Z,13.42
2022-10-13T06:49:14.161Z,13.39
2022-10-13T06:50:13.925Z,13.47
2022-10-13T06:51:13.941Z,13.53
2022-10-13T06:52:14.206Z,13.5
2022-10-13T06:53:13.701Z,13.47
2022-10-13T06:54:14.028Z,13.49
2022-10-13T06:55:14.336Z,13.49
2022-10-13T06:56:14.017Z,13.47
2022-10-13T06:57:14.367Z,13.44
2022-10-13T06:58:14.348Z,13.46
2022-10-13T06:59:14.332Z,13.41
2022-10-13T07:00:14.353Z,13.56
2022-10-13T07:01:14.251Z,13.46
2022-10-13T07:02:14.142Z,13.53
2022-10-13T07:03:14.411Z,13.47
2022-10-13T07:04:14.423Z,13.54
2022-10-13T07:05:14.439Z,13.47
2022-10-13T07:06:14.459Z,13.56
2022-10-13T07:07:14.214Z,13.49
2022-10-13T07:08:14.501Z,13.56
2022-10-13T07:09:14.544Z,13.56
2022-10-13T07:10:14.298Z,13.62
2022-10-13T07:11:20.429Z,13.56
2022-10-13T07:12:14.566Z,13.53
2022-10-13T07:13:14.564Z,13.5
2022-10-13T07:14:14.365Z,13.52
2022-10-13T07:15:14.628Z,13.63
2022-10-13T07:16:14.636Z,13.54
2022-10-13T07:17:14.393Z,13.57
2022-10-13T07:18:14.409Z,13.56
2022-10-13T07:19:14.688Z,13.65
2022-10-13T07:20:14.706Z,13.56
2022-10-13T07:21:14.666Z,13.6
2022-10-13T07:22:14.490Z,13.68
2022-10-13T07:23:14.773Z,13.67
2022-10-13T07:24:14.783Z,13.67
2022-10-13T07:25:14.532Z,13.71
2022-10-13T07:26:14.413Z,13.7
2022-10-13T07:27:14.594Z,13.68
2022-10-13T07:28:14.686Z,13.67
2022-10-13T07:29:14.649Z,13.65
2022-10-13T07:30:14.626Z,13.7
2022-10-13T07:31:14.902Z,13.7
2022-10-13T07:32:14.921Z,13.72
2022-10-13T07:33:14.678Z,13.7
2022-10-13T07:34:14.967Z,13.74
2022-10-13T07:35:14.971Z,13.75
2022-10-13T07:36:14.983Z,13.71
2022-10-13T07:37:14.748Z,13.71
2022-10-13T07:38:14.765Z,13.75
2022-10-13T07:39:15.059Z,13.77
2022-10-13T07:40:15.079Z,13.78
2022-10-13T07:41:14.826Z,13.75
2022-10-13T07:42:14.858Z,13.83
2022-10-13T07:43:15.154Z,13.7
2022-10-13T07:44:15.235Z,13.83
2022-10-13T07:45:15.319Z,13.74
2022-10-13T07:46:15.172Z,13.79
2022-10-13T07:47:14.934Z,13.75
2022-10-13T07:48:15.311Z,13.7
2022-10-13T07:49:18.978Z,13.75
2022-10-13T07:50:15.247Z,13.71
2022-10-13T07:51:15.367Z,13.74
2022-10-13T07:52:15.276Z,13.74
2022-10-13T07:53:15.056Z,13.74
2022-10-13T07:54:15.054Z,13.86
2022-10-13T07:55:15.333Z,13.78
2022-10-13T07:56:15.095Z,13.83
2022-10-13T07:57:15.117Z,13.83
2022-10-13T07:58:15.446Z,13.83
2022-10-13T07:59:15.518Z,13.78
2022-10-13T08:00:15.327Z,13.89
2022-10-13T08:01:15.622Z,13.89
2022-10-13T08:02:15.192Z,13.87
2022-10-13T08:03:15.486Z,13.9
2022-10-13T08:04:15.490Z,13.87
2022-10-13T08:05:15.528Z,13.93
2022-10-13T08:06:15.262Z,13.87
2022-10-13T08:07:15.557Z,13.96
2022-10-13T08:08:15.570Z,13.93
2022-10-13T08:09:15.571Z,13.96
2022-10-13T08:10:15.341Z,13.96
2022-10-13T08:11:20.074Z,13.92
2022-10-13T08:12:15.637Z,13.96
2022-10-13T08:13:15.657Z,13.92
2022-10-13T08:14:15.763Z,14
2022-10-13T08:15:15.726Z,14.04
2022-10-13T08:16:15.454Z,14
2022-10-13T08:17:15.764Z,14
2022-10-13T08:18:15.487Z,13.99
2022-10-13T08:19:15.491Z,13.95
2022-10-13T08:20:15.566Z,14
2022-10-13T08:22:01.302Z,14.04
2022-10-13T08:22:16.746Z,13.96
2022-10-13T08:23:16.501Z,14
2022-10-13T08:24:16.546Z,14.05
2022-10-13T08:25:16.545Z,14
2022-10-13T08:26:16.816Z,13.99
2022-10-13T08:27:17.087Z,14
2022-10-13T08:28:16.728Z,14.08
2022-10-13T08:29:32.318Z,13.99
2022-10-13T08:30:16.833Z,14.04
2022-10-13T08:31:17.709Z,14.05
2022-10-13T08:32:16.813Z,13.99
2022-10-13T08:33:16.713Z,14.04
2022-10-13T08:34:16.987Z,13.99
2022-10-13T08:35:16.720Z,14.07
2022-10-13T08:36:16.997Z,14.1
2022-10-13T08:37:17.005Z,14.08
2022-10-13T08:38:16.542Z,14
2022-10-13T08:39:17.055Z,14.08
2022-10-13T08:40:17.202Z,14.1
2022-10-13T08:41:17.085Z,14.05
2022-10-13T08:42:17.433Z,14.12
2022-10-13T08:43:16.860Z,14.07
2022-10-13T08:45:46.658Z,14.11
2022-10-13T08:45:56.814Z,14.14
2022-10-13T08:46:56.840Z,14.15
2022-10-13T08:47:56.828Z,14.15
2022-10-13T08:48:56.881Z,14.22
2022-10-13T08:50:03.444Z,14.17
2022-10-13T08:50:56.372Z,14.22
2022-10-13T08:51:56.656Z,14.11
2022-10-13T08:52:57.109Z,14.17
2022-10-13T08:53:56.428Z,14.2
2022-10-13T08:54:56.732Z,14.23
2022-10-13T08:55:56.730Z,14.28
2022-10-13T08:56:57.134Z,14.28
2022-10-13T08:57:57.017Z,14.26
2022-10-13T08:58:57.030Z,14.32
2022-10-13T08:59:57.062Z,14.29
2022-10-13T09:00:57.155Z,14.3
2022-10-13T09:01:57.396Z,14.25
2022-10-13T09:02:56.878Z,14.41
2022-10-13T09:03:56.869Z,14.37
2022-10-13T09:04:57.266Z,14.32
2022-10-13T09:05:57.171Z,14.5
2022-10-13T09:06:57.184Z,14.44
2022-10-13T09:07:57.022Z,14.51
2022-10-13T09:08:56.722Z,14.5
2022-10-13T09:09:57.232Z,14.41
2022-10-13T09:10:57.011Z,14.4
2022-10-13T09:11:57.274Z,14.51
2022-10-13T09:12:57.043Z,14.47
2022-10-13T09:13:57.053Z,14.5
2022-10-13T09:14:57.326Z,14.58
2022-10-13T09:15:57.093Z,14.55
2022-10-13T09:16:56.876Z,14.54
2022-10-13T09:17:57.387Z,14.7
2022-10-13T09:18:57.430Z,14.66
2022-10-13T09:19:57.417Z,14.7
2022-10-13T09:20:57.978Z,14.79
2022-10-13T09:21:57.668Z,14.79
2022-10-13T09:22:57.469Z,14.86
2022-10-13T09:23:57.487Z,14.84
2022-10-13T09:24:57.252Z,14.84
2022-10-13T09:25:57.274Z,14.89
2022-10-13T09:26:57.290Z,14.86
2022-10-13T09:27:57.575Z,14.86
2022-10-13T09:28:57.932Z,14.91
2022-10-13T09:29:57.599Z,14.92
2022-10-13T09:30:57.639Z,14.96
2022-10-13T09:31:57.379Z,14.97
2022-10-13T09:32:57.765Z,15.02
2022-10-13T09:33:57.674Z,14.97
2022-10-13T09:34:57.459Z,15
2022-10-13T09:35:57.712Z,14.99
2022-10-13T09:36:57.770Z,15
2022-10-13T09:37:57.755Z,15.02
2022-10-13T09:38:57.760Z,14.97
2022-10-13T09:39:57.533Z,15.06
2022-10-13T09:40:57.289Z,14.96
2022-10-13T09:41:57.575Z,15
2022-10-13T09:42:57.933Z,15.06
2022-10-13T09:43:57.612Z,15
2022-10-13T09:44:57.625Z,15.07
2022-10-13T09:45:57.894Z,15.04
2022-10-13T09:46:57.646Z,15
2022-10-13T09:47:57.689Z,15
2022-10-13T09:48:57.516Z,15
2022-10-13T09:49:57.969Z,15
2022-10-13T09:50:58.023Z,15.07
2022-10-13T09:51:57.753Z,15
2022-10-13T09:52:58.126Z,15.06
2022-10-13T09:53:58.051Z,15.07
2022-10-13T09:54:58.063Z,15.09
2022-10-13T09:55:58.077Z,15.24
2022-10-13T09:56:57.842Z,15.04
2022-10-13T09:57:58.114Z,15.07
2022-10-13T09:58:57.889Z,15.14
2022-10-13T09:59:58.064Z,15.19
2022-10-13T10:00:57.916Z,15.1
2022-10-13T10:01:58.189Z,15.22
2022-10-13T10:02:58.090Z,15.19
2022-10-13T10:03:58.405Z,15.15
2022-10-13T10:04:58.290Z,15.15
2022-10-13T10:05:58.415Z,15.19
2022-10-13T10:06:58.317Z,15.19
2022-10-13T10:07:58.307Z,15.25
2022-10-13T10:09:13.704Z,15.24
2022-10-13T10:09:57.834Z,15.31
2022-10-13T10:10:58.369Z,15.27
2022-10-13T10:11:58.377Z,15.31
2022-10-13T10:12:58.425Z,15.29
2022-10-13T10:13:58.413Z,15.35
2022-10-13T10:14:57.927Z,15.33
2022-10-13T10:15:58.210Z,15.33
2022-10-13T10:16:58.499Z,15.37
2022-10-13T10:17:58.514Z,15.31
2022-10-13T10:19:03.149Z,15.33
2022-10-13T10:19:58.273Z,15.36
2022-10-13T10:20:58.315Z,15.39
2022-10-13T10:21:58.621Z,15.36
2022-10-13T10:22:58.623Z,15.35
2022-10-13T10:23:58.606Z,15.39
2022-10-13T10:24:58.387Z,15.42
2022-10-13T10:25:58.382Z,15.42
2022-10-13T10:26:58.402Z,15.35
2022-10-13T10:27:58.680Z,15.44
2022-10-13T10:28:58.722Z,15.4
2022-10-13T10:29:58.470Z,15.52
2022-10-13T10:30:58.734Z,15.4
2022-10-13T10:31:58.754Z,15.49
2022-10-13T10:32:58.959Z,15.46
2022-10-13T10:33:58.790Z,15.57
2022-10-13T10:34:58.814Z,15.55
2022-10-13T10:35:58.576Z,15.49
2022-10-13T10:36:58.359Z,15.54
2022-10-13T10:37:58.873Z,15.57
2022-10-13T10:38:58.916Z,15.58
2022-10-13T10:39:58.394Z,15.57
2022-10-13T10:40:59.113Z,15.52
2022-10-13T10:41:58.951Z,15.58
2022-10-13T10:42:58.954Z,15.62
2022-10-13T10:43:58.534Z,15.68
2022-10-13T10:44:59.003Z,15.68
2022-10-13T10:45:59.014Z,15.62
2022-10-13T10:46:58.770Z,15.7
2022-10-13T10:47:59.082Z,15.67
2022-10-13T10:48:58.562Z,15.7
2022-10-13T10:49:59.110Z,15.65
2022-10-13T10:50:59.126Z,15.65
2022-10-13T10:51:59.192Z,15.79
2022-10-13T10:52:59.191Z,15.64
2022-10-13T10:53:58.660Z,15.8
2022-10-13T10:54:58.949Z,15.82
2022-10-13T10:55:58.956Z,15.75
2022-10-13T10:56:59.269Z,15.8
2022-10-13T10:57:58.992Z,15.82
2022-10-13T10:58:58.746Z,15.73
2022-10-13T10:59:59.016Z,15.75
2022-10-13T11:00:59.311Z,15.75
2022-10-13T11:01:59.452Z,15.88
2022-10-13T11:02:59.082Z,15.84
2022-10-13T11:03:59.139Z,15.84
2022-10-13T11:05:03.421Z,15.92
2022-10-13T11:05:59.387Z,15.83
2022-10-13T11:06:59.168Z,15.79
2022-10-13T11:07:59.596Z,15.88
2022-10-13T11:08:59.586Z,15.88
2022-10-13T11:09:59.216Z,15.97
2022-10-13T11:10:59.518Z,15.91
2022-10-13T11:11:59.255Z,15.86
2022-10-13T11:12:59.551Z,15.82
2022-10-13T11:13:59.615Z,16.01
2022-10-13T11:14:59.581Z,15.98
2022-10-13T11:15:59.595Z,16.02
2022-10-13T11:16:59.349Z,16
2022-10-13T11:17:59.369Z,16
2022-10-13T11:18:59.663Z,16
2022-10-13T11:19:59.669Z,16.02
2022-10-13T11:20:59.425Z,16.04
2022-10-13T11:21:59.814Z,16.05
2022-10-13T11:22:59.727Z,15.95
2022-10-13T11:24:05.423Z,16.01
2022-10-13T11:24:59.761Z,16.02
2022-10-13T11:25:59.778Z,16.09
2022-10-13T11:26:59.838Z,16.05
2022-10-13T11:27:59.576Z,16.09
2022-10-13T11:28:59.948Z,16.12
2022-10-13T11:29:59.878Z,16.12
2022-10-13T11:30:59.628Z,16.21
2022-10-13T11:31:59.645Z,16.28
2022-10-13T11:32:59.663Z,16.23
2022-10-13T11:33:59.437Z,16.24
2022-10-13T11:34:59.966Z,16.28
2022-10-13T11:35:59.718Z,16.16
2022-10-13T11:36:59.742Z,16.32
2022-10-13T11:38:17.996Z,16.31
2022-10-13T11:39:00.048Z,16.31
2022-10-13T11:40:00.100Z,16.32
2022-10-13T11:40:59.822Z,16.39
2022-10-13T11:41:59.840Z,16.38
2022-10-13T11:43:08.385Z,16.35
2022-10-13T11:44:00.132Z,16.35
2022-10-13T11:45:00.304Z,16.39
2022-10-13T11:46:00.185Z,16.41
2022-10-13T11:47:00.207Z,16.39
2022-10-13T11:48:00.252Z,16.43
2022-10-13T11:49:00.237Z,16.42
2022-10-13T11:49:59.989Z,16.38
2022-10-13T11:51:00.280Z,16.46
2022-10-13T11:52:00.577Z,16.38
2022-10-13T11:53:00.047Z,16.38
2022-10-13T11:53:59.821Z,16.41
2022-10-13T11:55:00.353Z,16.47
2022-10-13T11:56:00.137Z,16.5
2022-10-13T11:57:00.126Z,16.46
2022-10-13T11:58:00.404Z,16.39
2022-10-13T11:59:00.457Z,16.49
2022-10-13T12:00:00.214Z,16.5
2022-10-13T12:01:00.262Z,16.54
2022-10-13T12:02:00.495Z,16.51
2022-10-13T12:03:00.656Z,16.5
2022-10-13T12:04:00.295Z,16.56
2022-10-13T12:05:00.287Z,16.51
2022-10-13T12:06:00.040Z,16.61
2022-10-13T12:07:00.592Z,16.46
2022-10-13T12:08:00.337Z,16.54
2022-10-13T12:09:00.621Z,16.53
2022-10-13T12:10:00.630Z,16.5
2022-10-13T12:11:00.679Z,16.65
2022-10-13T12:12:00.726Z,16.56
2022-10-13T12:13:00.701Z,16.54
2022-10-13T12:14:00.711Z,16.61
2022-10-13T12:15:06.991Z,16.64
2022-10-13T12:16:00.505Z,16.6
2022-10-13T12:17:00.562Z,16.66
2022-10-13T12:18:00.788Z,16.6
2022-10-13T12:19:00.554Z,16.65
2022-10-13T12:20:00.840Z,16.69
2022-10-13T12:21:00.592Z,16.65
2022-10-13T12:22:00.809Z,16.65
2022-10-13T12:23:00.635Z,16.64
2022-10-13T12:24:00.397Z,16.65
2022-10-13T12:25:00.668Z,16.65
2022-10-13T12:26:00.690Z,16.61
2022-10-13T12:27:00.755Z,16.65
2022-10-13T12:28:01.086Z,16.66
2022-10-13T12:29:01.011Z,16.65
2022-10-13T12:30:00.776Z,16.68
2022-10-13T12:31:01.097Z,16.72
2022-10-13T12:32:00.569Z,16.74
2022-10-13T12:33:01.199Z,16.78
2022-10-13T12:34:01.182Z,16.72
2022-10-13T12:35:01.158Z,16.76
2022-10-13T12:36:01.163Z,16.75
2022-10-13T12:37:01.250Z,16.75
2022-10-13T12:38:01.187Z,16.81
2022-10-13T12:39:00.947Z,16.76
2022-10-13T12:40:00.969Z,16.76
2022-10-13T12:41:01.238Z,16.74
2022-10-13T12:42:01.256Z,16.75
2022-10-13T12:43:01.274Z,16.78
2022-10-13T12:44:06.493Z,16.78
2022-10-13T12:45:01.324Z,16.86
2022-10-13T12:46:01.334Z,16.79
2022-10-13T12:47:01.129Z,16.84
2022-10-13T12:48:01.124Z,16.81
2022-10-13T12:49:01.419Z,16.84
2022-10-13T12:50:00.954Z,16.81
2022-10-13T12:51:01.431Z,16.81
2022-10-13T12:52:01.197Z,16.84
2022-10-13T12:53:01.495Z,16.87
2022-10-13T12:54:01.499Z,16.71
2022-10-13T12:55:01.256Z,16.78
2022-10-13T12:56:01.355Z,16.76
2022-10-13T12:57:01.293Z,16.72
2022-10-13T12:58:01.326Z,16.81